Time;durP1;ratioP1;P1;durP2;ratioP2;P2;SDS_P1;SDS_P2;PMS_P1;PMS_P2;Temp;Humidity;BMP_temperature;BMP_pressure;BME280_temperature;BME280_humidity;BME280_pressure;Samples;Min_cycle;Max_cycle;Signal;HPM_P1;HPM_P2
2023/04/26 00:01:44;;;;;;;2.93;1.00;;;;;;;17.25;53.49;96644.31;10355821;28;20114;-32
2023/04/26 00:06:45;;;;;;;2.30;1.07;;;;;;;17.28;53.55;96649.38;10333858;28;20834;-32
2023/04/26 00:11:45;;;;;;;1.47;1.10;;;;;;;17.27;53.22;96643.47;10332609;28;20088;-32
2023/04/26 00:16:45;;;;;;;0.90;0.80;;;;;;;17.27;53.01;96650.22;10332426;28;20041;-33
2023/04/26 00:21:46;;;;;;;1.75;1.00;;;;;;;17.27;52.86;96642.63;10333778;28;20034;-32
2023/04/26 00:26:46;;;;;;;2.73;2.03;;;;;;;17.36;61.98;96650.28;10340664;28;20034;-33
2023/04/26 00:31:47;;;;;;;2.97;1.73;;;;;;;17.41;62.49;96646.09;10338727;28;20038;-32
2023/04/26 00:36:47;;;;;;;3.17;1.98;;;;;;;17.44;61.42;96641.03;10331509;28;20045;-32
2023/04/26 00:41:48;;;;;;;3.33;1.90;;;;;;;17.39;59.07;96638.47;10334480;28;20045;-32
2023/04/26 00:46:51;;;;;;;2.05;1.38;;;;;;;17.35;56.47;96646.88;10332789;28;20030;-33
2023/04/26 00:51:52;;;;;;;2.53;1.52;;;;;;;17.32;55.47;96651.09;10325601;28;20038;-33
2023/04/26 00:56:53;;;;;;;2.20;1.15;;;;;;;17.31;55.01;96665.41;10330975;28;20065;-33
2023/04/26 01:01:54;;;;;;;3.38;1.73;;;;;;;17.29;54.71;96661.19;10337766;28;20074;-32
2023/04/26 01:06:55;;;;;;;2.22;1.02;;;;;;;17.28;54.43;96669.63;10328969;28;20042;-33
2023/04/26 01:11:57;;;;;;;2.92;1.20;;;;;;;17.25;53.67;96659.50;10329002;28;20034;-32
2023/04/26 01:16:57;;;;;;;1.30;0.90;;;;;;;17.26;53.57;96651.88;10329405;28;20120;-33
2023/04/26 01:21:58;;;;;;;1.48;1.10;;;;;;;17.26;53.41;96651.06;10333874;28;20046;-33
2023/04/26 01:26:58;;;;;;;1.30;0.80;;;;;;;17.25;52.97;96645.13;10343706;28;20100;-32
2023/04/26 01:31:58;;;;;;;1.10;0.80;;;;;;;17.24;53.37;96647.69;10339745;28;20038;-32
2023/04/26 01:37:02;;;;;;;1.90;1.80;;;;;;;17.27;57.70;96640.09;10327982;28;20112;-33
2023/04/26 01:42:03;;;;;;;4.68;1.90;;;;;;;17.34;62.19;96629.16;10329466;28;20038;-32
2023/04/26 01:47:05;;;;;;;3.50;1.77;;;;;;;17.39;61.66;96622.44;10322957;28;20118;-32
2023/04/26 01:52:06;;;;;;;2.47;1.60;;;;;;;17.40;60.91;96614.84;10332710;28;20038;-31
2023/04/26 01:57:06;;;;;;;2.17;1.98;;;;;;;17.35;58.31;96611.47;10338004;28;20292;-33
2023/04/26 02:02:07;;;;;;;1.95;1.45;;;;;;;17.32;56.29;96623.25;10326860;28;20390;-32
2023/04/26 02:07:07;;;;;;;2.87;1.40;;;;;;;17.29;55.04;96623.22;10323739;28;20051;-33
2023/04/26 02:12:07;;;;;;;1.60;1.10;;;;;;;17.28;54.82;96629.13;10337089;28;20467;-33
2023/04/26 02:17:10;;;;;;;3.00;1.07;;;;;;;17.26;54.57;96626.59;10327432;28;20297;-32
2023/04/26 02:22:10;;;;;;;1.55;0.98;;;;;;;17.26;53.95;96628.28;10325786;28;20289;-32
2023/04/26 02:27:13;;;;;;;0.80;0.70;;;;;;;17.25;53.94;96624.06;10331262;28;20493;-31
2023/04/26 02:32:14;;;;;;;1.27;0.80;;;;;;;17.25;53.29;96624.06;10330592;28;20045;-34
2023/04/26 02:37:14;;;;;;;1.10;0.80;;;;;;;17.23;53.20;96631.66;10324546;28;20400;-33
2023/04/26 02:42:15;;;;;;;1.47;0.90;;;;;;;17.24;52.87;96627.44;10335585;28;20040;-32
2023/04/26 02:47:15;;;;;;;0.70;0.70;;;;;;;17.23;53.47;96623.22;10330932;28;20297;-34
2023/04/26 02:52:16;;;;;;;4.07;2.08;;;;;;;17.28;61.92;96621.53;10322650;28;20034;-33
2023/04/26 02:57:16;;;;;;;3.70;1.87;;;;;;;17.35;61.76;96625.78;10332969;28;20120;-32
2023/04/26 03:02:16;;;;;;;2.90;1.60;;;;;;;17.37;61.25;96626.66;10326565;28;20042;-33
2023/04/26 03:07:17;;;;;;;1.87;1.70;;;;;;;17.36;60.19;96612.31;10333842;28;20048;-32
2023/04/26 03:12:17;;;;;;;2.37;1.60;;;;;;;17.31;57.94;96617.34;10326869;28;20317;-33
2023/04/26 03:17:18;;;;;;;1.40;0.90;;;;;;;17.28;55.81;96613.94;10324579;28;20312;-33
2023/04/26 03:22:18;;;;;;;2.80;1.10;;;;;;;17.26;55.17;96608.03;10354947;28;20520;-32
2023/04/26 03:27:19;;;;;;;1.40;1.17;;;;;;;17.25;54.59;96609.72;10336560;28;20285;-32
2023/04/26 03:32:19;;;;;;;2.03;0.80;;;;;;;17.24;54.30;96609.72;10332525;28;20477;-33
2023/04/26 03:37:20;;;;;;;1.70;1.00;;;;;;;17.24;53.73;96612.25;10374566;22;20049;-25
2023/04/26 03:42:29;;;;;;;2.13;0.90;;;;;;;17.22;53.82;96604.66;10358184;28;20034;-24
2023/04/26 03:47:30;;;;;;;1.23;0.90;;;;;;;17.21;53.30;96597.91;10337743;28;20440;-24
2023/04/26 03:52:30;;;;;;;0.60;0.60;;;;;;;17.20;53.61;96591.16;10347330;28;20520;-25
2023/04/26 03:57:31;;;;;;;1.88;0.82;;;;;;;17.21;53.20;96595.38;10361723;28;20058;-24
2023/04/26 04:02:32;;;;;;;1.27;0.70;;;;;;;17.21;53.12;96599.59;10346125;28;20042;-24
2023/04/26 04:07:33;;;;;;;2.55;1.75;;;;;;;17.27;61.63;96599.63;10364182;28;20033;-25
2023/04/26 04:12:34;;;;;;;2.17;1.25;;;;;;;17.34;61.63;96598.78;10387669;23;20403;-28
2023/04/26 04:17:34;;;;;;;7.73;4.40;;;;;;;17.38;61.08;96600.50;10355873;23;20046;-30
2023/04/26 04:22:35;;;;;;;1.17;1.08;;;;;;;17.34;57.75;96592.03;10357303;28;20117;-30
2023/04/26 04:27:36;;;;;;;1.38;0.98;;;;;;;17.30;56.01;96597.06;10344104;28;20026;-30
2023/04/26 04:32:38;;;;;;;1.20;0.80;;;;;;;17.27;54.74;96599.63;10346905;28;20030;-31
2023/04/26 04:37:39;;;;;;;1.08;0.73;;;;;;;17.23;55.26;96598.75;10331673;28;20049;-30
2023/04/26 04:42:39;;;;;;;2.95;1.20;;;;;;;17.16;55.00;96608.88;10351781;28;20029;-30
2023/04/26 04:47:41;;;;;;;2.85;1.10;;;;;;;17.10;54.19;96603.78;10413465;22;20053;-26
2023/04/26 04:52:41;;;;;;;1.10;0.63;;;;;;;17.12;53.83;96609.69;10335807;28;20037;-25
2023/04/26 04:57:44;;;;;;;2.08;0.75;;;;;;;17.09;53.80;96602.09;10317003;28;20321;-25
2023/04/26 05:02:45;;;;;;;5.20;1.10;;;;;;;16.94;53.21;96620.59;10336298;28;20065;-25
2023/04/26 05:07:45;;;;;;;1.80;0.88;;;;;;;17.04;53.23;96618.91;10337500;28;20076;-24
2023/04/26 05:12:46;;;;;;;2.00;0.70;;;;;;;17.07;52.85;96619.78;10337017;28;20037;-25
2023/04/26 05:17:47;;;;;;;5.87;1.60;;;;;;;17.20;58.21;96630.78;10347266;28;20045;-27
2023/04/26 05:22:52;;;;;;;4.22;1.17;;;;;;;17.25;54.98;96624.06;10358162;28;20291;-27
2023/04/26 05:27:53;;;;;;;5.82;2.15;;;;;;;17.25;55.07;96626.59;10342776;28;20056;-27
2023/04/26 05:33:01;;;;;;;4.60;1.30;;;;;;;16.95;53.36;96641.63;10333735;28;20034;-27
2023/04/26 05:38:40;;;;;;;8.30;1.58;;;;;;;16.49;50.97;96639.72;10295779;28;20047;-26
2023/04/26 05:43:40;;;;;;;9.77;1.60;;;;;;;16.48;51.13;96644.75;10336123;28;20431;-25
2023/04/26 05:48:41;;;;;;;3.97;1.40;;;;;;;16.71;53.30;96654.16;10335287;28;20429;-24
2023/04/26 05:53:41;;;;;;;2.53;1.27;;;;;;;16.86;53.58;96666.88;10322099;28;20030;-25
2023/04/26 05:58:42;;;;;;;2.70;1.60;;;;;;;16.95;52.62;96670.31;10332162;28;20091;-25
2023/04/26 06:03:44;;;;;;;2.20;0.90;;;;;;;16.99;51.49;96678.78;10347077;28;20068;-25
2023/04/26 06:08:45;;;;;;;0.77;0.63;;;;;;;17.01;50.96;96694.78;10344918;28;20026;-25
2023/04/26 06:13:46;;;;;;;0.82;0.60;;;;;;;17.02;51.07;96687.22;10340898;28;20034;-24
2023/04/26 06:18:46;;;;;;;1.70;0.90;;;;;;;17.00;50.71;96688.03;10345800;28;20034;-24
2023/04/26 06:23:46;;;;;;;1.03;0.90;;;;;;;17.02;50.49;96681.31;10341597;28;20034;-25
2023/04/26 06:28:47;;;;;;;3.28;0.80;;;;;;;17.05;51.39;96686.38;10341872;28;20297;-24
2023/04/26 06:33:47;;;;;;;5.88;1.45;;;;;;;17.09;58.56;96693.97;10345879;28;20100;-25
2023/04/26 06:38:48;;;;;;;2.53;1.05;;;;;;;17.12;58.55;96690.63;10343247;28;20037;-24
2023/04/26 06:43:48;;;;;;;5.13;1.07;;;;;;;17.11;56.42;96673.75;10355073;28;20040;-24
2023/04/26 06:48:54;;;;;;;2.22;0.68;;;;;;;17.09;53.65;96666.16;10330835;28;20296;-25
2023/04/26 06:53:57;;;;;;;1.40;1.00;;;;;;;17.07;52.68;96674.59;10338697;28;20049;-25
2023/04/26 06:59:03;;;;;;;1.17;0.82;;;;;;;17.05;52.24;96672.03;10335600;28;20135;-24
2023/04/26 07:04:09;;;;;;;0.50;0.50;;;;;;;17.04;51.71;96661.91;10317974;28;20037;-24
2023/04/26 07:09:09;;;;;;;1.00;0.60;;;;;;;17.03;51.71;96668.69;10321309;28;20030;-25
2023/04/26 07:14:10;;;;;;;1.03;0.73;;;;;;;17.03;51.20;96665.28;10334875;28;20078;-25
2023/04/26 07:19:11;;;;;;;0.50;0.50;;;;;;;17.03;50.90;96662.75;10343827;28;20036;-25
2023/04/26 07:24:12;;;;;;;0.57;0.57;;;;;;;16.99;51.06;96650.94;10337890;28;20044;-25
2023/04/26 07:29:13;;;;;;;0.30;0.30;;;;;;;17.02;51.17;96653.47;10342270;28;20332;-24
2023/04/26 07:34:13;;;;;;;1.13;0.60;;;;;;;17.01;51.09;96650.13;10343787;28;20378;-25
2023/04/26 07:39:14;;;;;;;0.82;0.43;;;;;;;17.01;50.57;96647.59;10337389;28;20117;-25
2023/04/26 07:44:14;;;;;;;1.52;0.70;;;;;;;17.05;53.73;96640.84;10356238;28;20037;-25
2023/04/26 07:49:15;;;;;;;1.27;0.90;;;;;;;17.09;59.04;96647.63;10351674;28;20329;-24
2023/04/26 07:54:15;;;;;;;1.13;0.80;;;;;;;17.09;58.87;96637.50;10327660;28;20674;-25
2023/04/26 07:59:15;;;;;;;3.00;1.17;;;;;;;17.10;55.88;96644.25;10341480;28;20050;-25
2023/04/26 08:04:17;;;;;;;0.53;0.53;;;;;;;17.06;53.77;96635.78;10365585;28;20042;-25
2023/04/26 08:09:17;;;;;;;0.45;0.43;;;;;;;17.04;52.13;96639.16;10343892;28;20038;-25
2023/04/26 08:14:18;;;;;;;0.83;0.50;;;;;;;17.04;51.70;96639.16;10343919;28;20294;-24
2023/04/26 08:19:18;;;;;;;0.70;0.43;;;;;;;17.02;51.22;96645.91;10342298;28;20030;-25
2023/04/26 08:24:18;;;;;;;1.77;0.43;;;;;;;16.99;51.33;96641.66;10326008;28;20080;-24
2023/04/26 08:29:19;;;;;;;3.00;0.80;;;;;;;16.99;50.63;96639.13;10346047;28;20294;-25
2023/04/26 08:34:20;;;;;;;0.50;0.50;;;;;;;17.00;50.86;96638.28;10355127;28;20084;-25
2023/04/26 08:39:20;;;;;;;0.93;0.55;;;;;;;17.00;50.69;96638.28;10339928;28;20039;-24
2023/04/26 08:44:23;;;;;;;3.70;1.10;;;;;;;16.99;52.35;96636.59;10364761;28;20030;-25
2023/04/26 08:49:43;;;;;;;1.45;0.70;;;;;;;17.03;51.83;96640.00;10339306;28;20124;-25
2023/04/26 08:54:45;;;;;;;3.58;1.08;;;;;;;17.05;52.23;96636.63;10340239;28;20034;-24
2023/04/26 08:59:46;;;;;;;3.17;0.90;;;;;;;17.06;57.96;96633.25;10329308;28;20485;-24
2023/04/26 09:04:48;;;;;;;4.53;1.13;;;;;;;17.15;59.32;96632.47;10330058;28;20031;-24
2023/04/26 09:09:50;;;;;;;6.45;1.50;;;;;;;17.18;58.96;96629.94;10342586;28;20037;-24
2023/04/26 09:14:51;;;;;;;4.40;1.15;;;;;;;17.16;57.44;96639.22;10333817;28;20038;-25
2023/04/26 09:19:53;;;;;;;2.83;0.98;;;;;;;17.13;55.54;96634.13;10343596;28;20485;-25
2023/04/26 09:24:53;;;;;;;1.45;0.85;;;;;;;17.10;54.23;96631.59;10324981;28;20476;-25
2023/04/26 09:29:58;;;;;;;2.33;0.90;;;;;;;17.09;53.57;96632.44;10348391;28;20037;-24
2023/04/26 09:34:58;;;;;;;4.45;1.00;;;;;;;17.09;53.41;96632.44;10336475;28;20125;-24
2023/04/26 09:40:01;;;;;;;4.30;1.57;;;;;;;17.08;53.41;96625.69;10334717;28;20519;-25
2023/04/26 09:45:05;;;;;;;1.13;0.90;;;;;;;17.09;53.46;96622.31;10344287;28;20281;-25
2023/04/26 09:50:06;;;;;;;2.05;0.98;;;;;;;17.07;53.36;96621.47;10339364;28;20124;-24
2023/04/26 09:55:07;;;;;;;2.30;0.93;;;;;;;17.09;53.14;96624.84;10327611;28;20041;-24
2023/04/26 10:00:11;;;;;;;2.25;0.82;;;;;;;17.07;52.87;96619.78;10338286;28;20311;-24
2023/04/26 10:05:11;;;;;;;3.10;1.15;;;;;;;17.07;52.96;96622.31;10331562;28;20472;-25
2023/04/26 10:10:12;;;;;;;3.95;0.90;;;;;;;17.07;53.02;96619.78;10328200;28;20030;-24
2023/04/26 10:15:14;;;;;;;3.08;1.02;;;;;;;17.16;59.46;96612.22;10350348;28;20025;-24
2023/04/26 10:20:17;;;;;;;1.73;1.15;;;;;;;17.20;60.08;96615.59;10322412;28;20405;-25
2023/04/26 10:25:18;;;;;;;2.22;1.15;;;;;;;17.22;59.39;96613.91;10336895;28;20073;-25
2023/04/26 10:30:20;;;;;;;2.47;0.93;;;;;;;17.18;57.22;96612.22;10327665;28;20069;-24
2023/04/26 10:35:21;;;;;;;3.92;1.08;;;;;;;17.13;55.73;96596.19;10344978;28;20039;-25
2023/04/26 10:40:24;;;;;;;1.25;0.80;;;;;;;17.12;55.30;96597.03;10351705;28;20042;-24
2023/04/26 10:45:26;;;;;;;1.08;0.73;;;;;;;17.11;54.75;96595.34;10333725;28;20080;-24
2023/04/26 10:50:26;;;;;;;1.52;0.95;;;;;;;17.11;54.19;96592.81;10338743;28;20042;-24
2023/04/26 10:55:42;;;;;;;1.50;0.90;;;;;;;17.09;55.52;96595.31;10359407;28;20432;-25
2023/04/26 11:01:03;;;;;;;2.28;1.00;;;;;;;17.11;54.23;96596.19;10344450;28;20400;-23
2023/04/26 11:06:08;;;;;;;1.10;0.85;;;;;;;17.09;53.92;96592.78;10327019;28;20030;-24
2023/04/26 11:11:10;;;;;;;1.30;0.70;;;;;;;17.19;54.24;96593.69;10327201;28;20034;-25
2023/04/26 11:16:14;;;;;;;5.93;0.80;;;;;;;17.22;54.63;96593.69;10332967;28;20088;-24
2023/04/26 11:21:17;;;;;;;2.08;0.60;;;;;;;17.20;53.97;96585.25;10328441;28;20066;-25
2023/04/26 11:26:18;;;;;;;1.58;0.73;;;;;;;17.23;53.44;96587.81;10318394;28;20062;-25
2023/04/26 11:31:18;;;;;;;2.50;0.80;;;;;;;17.29;60.05;96580.22;10355922;28;20069;-24
2023/04/26 11:36:19;;;;;;;5.10;1.30;;;;;;;17.27;60.35;96574.31;10327263;28;20043;-25
2023/04/26 11:41:22;;;;;;;3.15;0.70;;;;;;;17.29;56.46;96559.97;10334517;28;20054;-24
2023/04/26 11:46:23;;;;;;;2.22;0.98;;;;;;;17.27;55.91;96582.75;10353090;28;20116;-25
2023/04/26 11:51:23;;;;;;;3.42;1.02;;;;;;;17.24;54.51;96579.38;10317874;28;20037;-24
2023/04/26 11:56:24;;;;;;;1.30;0.90;;;;;;;17.20;54.00;96580.19;10342875;28;20037;-25
2023/04/26 12:01:28;;;;;;;2.17;1.38;;;;;;;17.18;53.71;96582.75;10327678;28;20151;-25
2023/04/26 12:06:49;;;;;;;1.23;0.73;;;;;;;17.18;53.49;96587.81;10357947;28;20034;-25
2023/04/26 12:11:59;;;;;;;1.52;0.70;;;;;;;17.18;53.34;96571.75;10341901;28;20042;-24
2023/04/26 12:17:01;;;;;;;2.83;1.23;;;;;;;17.22;53.59;96573.44;10336035;28;20121;-25
2023/04/26 12:22:03;;;;;;;4.45;1.65;;;;;;;17.21;53.43;96569.22;10348093;28;20405;-24
2023/04/26 12:27:05;;;;;;;6.78;1.75;;;;;;;17.23;53.75;96570.09;10349148;28;20077;-25
2023/04/26 12:32:06;;;;;;;3.53;1.48;;;;;;;17.17;52.53;96567.53;10354173;28;20521;-25
2023/04/26 12:37:06;;;;;;;6.10;2.83;;;;;;;17.17;52.85;96562.47;10345371;28;20029;-26
2023/04/26 12:42:07;;;;;;;6.18;1.52;;;;;;;17.25;58.38;96558.28;10359743;28;20042;-24
2023/04/26 12:47:07;;;;;;;7.35;1.60;;;;;;;17.34;59.52;96545.66;10350010;28;20069;-25
2023/04/26 12:52:08;;;;;;;8.70;2.80;;;;;;;17.41;58.44;96542.34;10341697;28;20121;-24
2023/04/26 12:57:08;;;;;;;25.55;3.67;;;;;;;17.33;54.88;96537.22;10353904;28;20037;-25
2023/04/26 13:02:09;;;;;;;12.10;3.25;;;;;;;17.28;53.83;96535.50;10341809;28;20397;-25
2023/04/26 13:07:09;;;;;;;13.77;2.63;;;;;;;17.24;55.14;96532.13;10328245;28;20443;-24
2023/04/26 13:12:10;;;;;;;13.70;3.50;;;;;;;17.26;53.96;96540.56;10338344;28;20344;-25
2023/04/26 13:17:10;;;;;;;10.48;2.42;;;;;;;17.26;54.20;96537.22;10338366;28;20343;-24
2023/04/26 13:22:11;;;;;;;5.03;2.10;;;;;;;17.24;54.40;96542.25;10353442;28;20038;-25
2023/04/26 13:27:12;;;;;;;6.80;2.63;;;;;;;17.21;53.92;96542.25;10352242;28;20117;-25
2023/04/26 13:32:12;;;;;;;8.32;3.08;;;;;;;17.22;53.68;96538.03;10323826;28;20030;-24
2023/04/26 13:37:13;;;;;;;8.68;2.30;;;;;;;17.20;53.55;96529.59;10346517;28;20037;-25
2023/04/26 13:42:15;;;;;;;4.88;2.13;;;;;;;17.20;53.52;96534.66;10348088;28;20038;-25
2023/04/26 13:47:16;;;;;;;4.82;1.75;;;;;;;17.18;53.59;96526.22;10334376;28;20026;-25
2023/04/26 13:52:17;;;;;;;7.00;1.80;;;;;;;17.20;53.65;96535.50;10351573;28;20066;-25
2023/04/26 13:57:17;;;;;;;6.25;2.40;;;;;;;17.27;55.49;96532.16;10332891;28;20062;-25
2023/04/26 14:02:17;;;;;;;3.13;1.47;;;;;;;17.37;59.34;96526.28;10331341;28;20161;-24
2023/04/26 14:07:18;;;;;;;4.40;1.67;;;;;;;17.38;59.66;96527.13;10350379;28;20049;-23
2023/04/26 14:12:18;;;;;;;3.93;1.40;;;;;;;17.31;56.03;96525.41;10344310;28;20293;-24
2023/04/26 14:17:18;;;;;;;8.00;1.53;;;;;;;17.26;54.58;96524.56;10357198;28;20300;-24
2023/04/26 14:22:19;;;;;;;3.37;1.63;;;;;;;17.23;53.96;96517.81;10360516;28;20567;-25
2023/04/26 14:27:20;;;;;;;4.25;2.05;;;;;;;17.24;54.43;96523.72;10355384;28;20039;-24
2023/04/26 14:32:20;;;;;;;6.93;1.50;;;;;;;17.25;54.50;96525.41;10348027;28;20033;-25
2023/04/26 14:37:21;;;;;;;2.37;1.33;;;;;;;17.27;54.44;96521.19;10349714;28;20297;-25
2023/04/26 14:42:21;;;;;;;2.15;1.30;;;;;;;17.27;54.45;96513.59;10342845;28;20108;-25
2023/04/26 14:47:22;;;;;;;4.03;1.35;;;;;;;17.27;54.17;96521.19;10320823;28;20041;-25
2023/04/26 14:52:25;;;;;;;3.70;1.20;;;;;;;17.25;54.42;96522.88;10335489;28;20046;-25
2023/04/26 14:57:26;;;;;;;2.08;1.20;;;;;;;17.26;54.41;96509.38;10358945;28;20041;-25
2023/04/26 15:02:26;;;;;;;4.00;1.60;;;;;;;17.26;54.68;96509.38;10322766;28;20036;-24
2023/04/26 15:07:27;;;;;;;5.80;1.20;;;;;;;17.25;54.34;96507.69;10348159;28;20065;-23
2023/04/26 15:12:27;;;;;;;2.03;1.75;;;;;;;17.33;58.96;96511.06;10332226;28;20042;-25
2023/04/26 15:17:31;;;;;;;4.30;1.50;;;;;;;17.39;59.40;96513.63;10333206;28;20101;-24
2023/04/26 15:22:32;;;;;;;3.10;1.40;;;;;;;17.37;59.36;96508.59;10349902;28;20030;-25
2023/04/26 15:27:34;;;;;;;2.63;1.17;;;;;;;17.29;54.78;96509.38;10344499;28;20034;-25
2023/04/26 15:32:34;;;;;;;5.03;1.60;;;;;;;17.27;54.13;96495.88;10350794;28;20412;-26
2023/04/26 15:37:38;;;;;;;3.08;1.40;;;;;;;17.24;53.98;96496.72;10333255;28;20049;-25
2023/04/26 15:42:38;;;;;;;2.70;0.90;;;;;;;17.25;53.72;96502.63;10340938;28;20095;-25
2023/04/26 15:47:39;;;;;;;4.10;1.57;;;;;;;17.25;53.99;96502.63;10353398;28;20169;-25
2023/04/26 15:52:39;;;;;;;4.17;1.30;;;;;;;17.23;53.50;96499.25;10363548;28;20341;-23
2023/04/26 15:57:40;;;;;;;1.45;1.35;;;;;;;17.19;51.87;96520.31;10342986;28;20294;-24
2023/04/26 16:02:43;;;;;;;3.00;1.00;;;;;;;17.20;52.69;96525.41;10340804;28;20026;-24
2023/04/26 16:07:43;;;;;;;2.47;0.90;;;;;;;17.22;52.63;96525.38;10355329;28;20354;-25
2023/04/26 16:12:44;;;;;;;4.40;1.00;;;;;;;17.21;52.75;96513.56;10349913;28;20041;-24
2023/04/26 16:17:44;;;;;;;9.73;2.75;;;;;;;17.11;52.26;96519.47;10344231;28;20038;-25
2023/04/26 16:22:45;;;;;;;5.50;1.83;;;;;;;17.25;57.04;96517.81;10354241;28;20032;-25
2023/04/26 16:27:45;;;;;;;7.95;2.47;;;;;;;17.28;58.39;96516.13;10362393;28;20316;-25
2023/04/26 16:32:46;;;;;;;8.73;2.20;;;;;;;17.32;58.06;96516.97;10347533;28;20034;-24
2023/04/26 16:37:46;;;;;;;6.03;1.90;;;;;;;17.28;55.31;96508.53;10347150;28;20042;-25
2023/04/26 16:42:46;;;;;;;21.07;2.27;;;;;;;17.26;54.97;96520.31;10365855;28;20042;-25
2023/04/26 16:47:47;;;;;;;9.27;2.00;;;;;;;17.25;52.86;96513.56;10332717;28;20040;-25
2023/04/26 16:52:47;;;;;;;7.30;1.30;;;;;;;17.25;53.17;96507.69;10338818;28;20041;-25
2023/04/26 16:57:47;;;;;;;7.83;2.40;;;;;;;17.23;53.25;96504.31;10328786;28;20039;-25
2023/04/26 17:02:48;;;;;;;3.73;1.40;;;;;;;17.24;52.77;96506.00;10344130;28;20042;-25
2023/04/26 17:07:49;;;;;;;5.00;1.60;;;;;;;17.24;52.63;96524.53;10319926;28;20092;-25
2023/04/26 17:12:49;;;;;;;5.32;1.55;;;;;;;17.24;51.97;96531.31;10324586;28;20031;-25
2023/04/26 17:17:50;;;;;;;5.15;1.27;;;;;;;17.25;52.60;96525.41;10335941;28;20113;-25
2023/04/26 17:22:50;;;;;;;5.43;1.10;;;;;;;17.26;52.69;96524.56;10318770;28;20037;-25
2023/04/26 17:27:51;;;;;;;4.05;1.42;;;;;;;17.24;52.67;96532.13;10318696;28;20064;-24
2023/04/26 17:32:51;;;;;;;6.57;2.10;;;;;;;17.26;52.52;96534.69;10327582;28;20026;-25
2023/04/26 17:37:52;;;;;;;20.10;3.67;;;;;;;17.32;58.15;96529.63;10340050;28;20042;-25
2023/04/26 17:42:52;;;;;;;10.80;3.07;;;;;;;17.34;58.25;96536.34;10334830;28;20027;-24
2023/04/26 17:47:53;;;;;;;12.35;3.30;;;;;;;17.33;58.01;96534.69;10336328;28;20033;-25
2023/04/26 17:52:53;;;;;;;4.83;1.67;;;;;;;17.30;53.87;96541.41;10348240;28;20039;-24
2023/04/26 17:57:53;;;;;;;5.20;2.03;;;;;;;17.28;54.52;96548.16;10332245;28;20664;-25
2023/04/26 18:02:55;;;;;;;4.60;1.60;;;;;;;17.27;53.05;96546.47;10318334;28;20749;-25
2023/04/26 18:07:55;;;;;;;4.68;1.55;;;;;;;17.24;52.88;96539.72;10330475;28;20038;-25
2023/04/26 18:12:56;;;;;;;7.90;1.60;;;;;;;17.25;52.91;96553.22;10314167;28;20456;-25
2023/04/26 18:17:56;;;;;;;5.88;1.60;;;;;;;17.25;52.57;96558.28;10332231;28;20297;-26
2023/04/26 18:22:57;;;;;;;5.18;1.85;;;;;;;17.25;52.85;96558.28;10338243;28;20031;-25
2023/04/26 18:27:57;;;;;;;7.50;2.20;;;;;;;17.28;54.16;96556.63;10327707;28;20034;-26
2023/04/26 18:32:58;;;;;;;3.13;2.60;;;;;;;17.34;52.78;96570.97;10318119;28;20416;-26
2023/04/26 18:37:58;;;;;;;4.88;1.30;;;;;;;17.35;52.58;96576.03;10325294;28;20389;-26
2023/04/26 18:42:58;;;;;;;4.23;1.43;;;;;;;17.36;52.52;96571.84;10339650;28;20396;-25
2023/04/26 18:47:59;;;;;;;6.47;2.57;;;;;;;17.41;58.11;96567.63;10315684;28;20041;-26
2023/04/26 18:53:00;;;;;;;10.77;2.50;;;;;;;17.47;59.23;96575.22;10329457;28;20293;-26
2023/04/26 18:58:00;;;;;;;6.38;2.42;;;;;;;17.47;58.60;96575.22;10321285;28;20038;-26
2023/04/26 19:03:01;;;;;;;5.50;1.90;;;;;;;17.42;54.12;96587.03;10325896;28;20476;-26
2023/04/26 19:08:01;;;;;;;4.00;1.80;;;;;;;17.40;52.98;96591.25;10325845;28;20540;-26
2023/04/26 19:13:02;;;;;;;3.00;1.63;;;;;;;17.36;52.71;96594.59;10310044;28;20605;-26
2023/04/26 19:18:02;;;;;;;2.08;1.35;;;;;;;17.36;52.79;96599.66;10329706;28;20046;-26
2023/04/26 19:23:03;;;;;;;5.13;1.88;;;;;;;17.32;54.08;96605.53;10329949;28;20072;-26
2023/04/26 19:28:03;;;;;;;3.27;1.60;;;;;;;17.32;53.14;96611.44;10337518;28;20035;-25
2023/04/26 19:33:04;;;;;;;3.60;1.13;;;;;;;17.31;52.73;96614.81;10325713;28;20089;-26
2023/04/26 19:38:05;;;;;;;6.25;1.50;;;;;;;17.32;52.95;96618.19;10348269;28;20043;-26
2023/04/26 19:43:06;;;;;;;4.47;1.10;;;;;;;17.31;52.60;96629.16;10330572;28;20026;-25
2023/04/26 19:48:09;;;;;;;1.70;1.07;;;;;;;17.31;52.91;96636.75;10331411;28;20034;-26
2023/04/26 19:53:11;;;;;;;1.98;1.08;;;;;;;17.33;52.81;96632.53;10326699;28;20296;-26
2023/04/26 19:58:12;;;;;;;4.07;2.10;;;;;;;17.34;56.28;96644.34;10331011;28;20049;-27
2023/04/26 20:03:12;;;;;;;6.53;2.23;;;;;;;17.37;60.46;96635.09;10362255;28;20029;-25
2023/04/26 20:08:12;;;;;;;5.30;2.23;;;;;;;17.37;60.23;96645.22;10335404;28;20297;-26
2023/04/26 20:13:13;;;;;;;3.37;1.80;;;;;;;17.38;55.27;96638.47;10347172;28;20041;-25
2023/04/26 20:18:13;;;;;;;4.67;1.50;;;;;;;17.37;53.70;96644.38;10334710;28;20042;-26
2023/04/26 20:23:13;;;;;;;3.37;1.10;;;;;;;17.34;53.71;96649.41;10337757;28;20022;-25
2023/04/26 20:28:14;;;;;;;2.97;1.07;;;;;;;17.34;53.82;96651.94;10332944;28;20076;-26
2023/04/26 20:33:17;;;;;;;3.88;0.93;;;;;;;17.35;53.03;96651.09;10336854;28;20300;-26
2023/04/26 20:38:17;;;;;;;3.63;1.67;;;;;;;17.32;53.35;96646.84;10316665;28;20042;-26
2023/04/26 20:43:17;;;;;;;2.53;1.23;;;;;;;17.32;53.06;96646.03;10334864;28;20042;-26
2023/04/26 20:48:18;;;;;;;3.03;1.43;;;;;;;17.31;53.03;96639.28;10344568;28;20042;-26
2023/04/26 20:53:18;;;;;;;1.73;0.90;;;;;;;17.30;52.61;96642.63;10316057;28;20046;-25
2023/04/26 20:58:19;;;;;;;3.28;1.58;;;;;;;17.31;54.97;96634.22;10334960;28;20105;-25
2023/04/26 21:03:22;;;;;;;1.17;0.90;;;;;;;17.32;53.80;96646.84;10340268;28;20030;-25
2023/04/26 21:08:22;;;;;;;6.13;1.85;;;;;;;17.33;54.92;96642.66;10331367;28;20469;-26
2023/04/26 21:13:22;;;;;;;6.07;2.10;;;;;;;17.37;60.08;96649.44;10336674;28;20027;-26
2023/04/26 21:18:23;;;;;;;8.35;2.47;;;;;;;17.38;60.78;96646.06;10325099;28;20034;-26
2023/04/26 21:23:23;;;;;;;7.83;2.10;;;;;;;17.37;60.15;96654.50;10328319;28;20029;-25
2023/04/26 21:28:23;;;;;;;2.47;1.10;;;;;;;17.36;54.92;96648.59;10338309;28;20038;-25
2023/04/26 21:33:24;;;;;;;2.27;1.03;;;;;;;17.35;53.92;96656.16;10336784;28;20033;-26
2023/04/26 21:38:25;;;;;;;2.80;1.43;;;;;;;17.31;53.64;96664.59;10330933;28;20118;-26
2023/04/26 21:43:25;;;;;;;3.47;1.33;;;;;;;17.28;53.46;96662.03;10329477;28;20061;-26
2023/04/26 21:48:25;;;;;;;1.27;1.10;;;;;;;17.29;53.26;96668.75;10335090;28;20033;-26
2023/04/26 21:53:26;;;;;;;2.03;1.30;;;;;;;17.26;53.25;96672.13;10345932;28;20074;-26
2023/04/26 21:58:26;;;;;;;3.33;1.20;;;;;;;17.26;52.88;96662.00;10352902;28;20038;-25
2023/04/26 22:03:27;;;;;;;2.10;1.20;;;;;;;17.26;52.84;96668.75;10323301;28;20457;-26
2023/04/26 22:08:27;;;;;;;1.80;0.90;;;;;;;17.24;52.88;96667.91;10345420;28;20292;-25
2023/04/26 22:13:28;;;;;;;2.10;1.00;;;;;;;17.24;52.57;96670.44;10356450;28;20030;-25
2023/04/26 22:18:28;;;;;;;1.27;1.02;;;;;;;17.17;52.66;96667.03;10349186;28;20297;-25
2023/04/26 22:23:30;;;;;;;1.83;0.90;;;;;;;17.23;53.19;96677.19;10342667;28;20035;-26
2023/04/26 22:28:30;;;;;;;4.57;1.63;;;;;;;17.28;61.43;96677.19;10342096;28;20022;-26
2023/04/26 22:33:30;;;;;;;3.00;1.57;;;;;;;17.34;61.74;96677.22;10337845;28;20031;-26
2023/04/26 22:38:31;;;;;;;3.60;1.53;;;;;;;17.36;61.19;96671.38;10338531;28;20038;-25
2023/04/26 22:43:35;;;;;;;2.47;0.90;;;;;;;17.31;55.79;96675.53;10339471;28;20034;-25
2023/04/26 22:48:35;;;;;;;2.88;1.23;;;;;;;17.28;54.06;96679.72;10328581;28;20714;-26
2023/04/26 22:53:36;;;;;;;2.10;1.20;;;;;;;17.28;54.28;96684.78;10307219;28;20030;-25
2023/04/26 22:58:36;;;;;;;2.20;1.20;;;;;;;17.26;54.23;96692.38;10330124;28;20039;-25
2023/04/26 23:03:36;;;;;;;2.57;0.77;;;;;;;17.25;53.96;96685.63;10354422;28;20079;-26
2023/04/26 23:08:37;;;;;;;1.23;0.90;;;;;;;17.24;54.17;96683.09;10320598;28;20037;-25
2023/04/26 23:13:40;;;;;;;1.27;0.80;;;;;;;17.23;53.87;96679.72;10336753;28;20403;-26
2023/04/26 23:18:45;;;;;;;1.67;0.90;;;;;;;17.24;53.53;96681.41;10336012;28;20803;-26